sensor_id;sensor_type;location;lat;lon;timestamp;P1;durP1;ratioP1;P2;durP2;ratioP2
20318;SDS011;10317;47.254;11.314;2023-04-29T00:00:52;3.30;;;2.92;;
20318;SDS011;10317;47.254;11.314;2023-04-29T00:03:18;5.88;;;3.80;;
20318;SDS011;10317;47.254;11.314;2023-04-29T00:05:44;4.90;;;3.45;;
20318;SDS011;10317;47.254;11.314;2023-04-29T00:08:10;3.90;;;3.60;;
20318;SDS011;10317;47.254;11.314;2023-04-29T00:10:36;4.72;;;4.32;;
20318;SDS011;10317;47.254;11.314;2023-04-29T00:13:02;6.47;;;5.22;;
20318;SDS011;10317;47.254;11.314;2023-04-29T00:15:27;5.97;;;5.38;;
20318;SDS011;10317;47.254;11.314;2023-04-29T00:17:53;5.18;;;4.40;;
20318;SDS011;10317;47.254;11.314;2023-04-29T00:20:19;7.40;;;5.28;;
20318;SDS011;10317;47.254;11.314;2023-04-29T00:22:45;5.50;;;4.85;;
20318;SDS011;10317;47.254;11.314;2023-04-29T00:25:11;6.45;;;5.43;;
20318;SDS011;10317;47.254;11.314;2023-04-29T00:27:36;4.53;;;4.18;;
20318;SDS011;10317;47.254;11.314;2023-04-29T00:30:04;5.63;;;5.22;;
20318;SDS011;10317;47.254;11.314;2023-04-29T00:32:32;6.03;;;5.57;;
20318;SDS011;10317;47.254;11.314;2023-04-29T00:34:57;5.43;;;4.88;;
20318;SDS011;10317;47.254;11.314;2023-04-29T00:37:23;4.93;;;4.50;;
20318;SDS011;10317;47.254;11.314;2023-04-29T00:39:49;5.25;;;4.88;;
20318;SDS011;10317;47.254;11.314;2023-04-29T00:42:14;4.40;;;4.10;;
20318;SDS011;10317;47.254;11.314;2023-04-29T00:44:40;5.30;;;4.90;;
20318;SDS011;10317;47.254;11.314;2023-04-29T00:47:06;5.78;;;4.78;;
20318;SDS011;10317;47.254;11.314;2023-04-29T00:49:36;5.18;;;4.78;;
20318;SDS011;10317;47.254;11.314;2023-04-29T00:52:02;6.38;;;5.78;;
20318;SDS011;10317;47.254;11.314;2023-04-29T00:54:28;5.30;;;4.82;;
20318;SDS011;10317;47.254;11.314;2023-04-29T00:56:54;5.05;;;4.65;;
20318;SDS011;10317;47.254;11.314;2023-04-29T00:59:21;5.30;;;4.80;;
20318;SDS011;10317;47.254;11.314;2023-04-29T01:01:47;4.75;;;4.43;;
20318;SDS011;10317;47.254;11.314;2023-04-29T01:04:13;4.38;;;3.90;;
20318;SDS011;10317;47.254;11.314;2023-04-29T01:12:40;5.47;;;3.88;;
20318;SDS011;10317;47.254;11.314;2023-04-29T01:18:19;4.03;;;3.65;;
20318;SDS011;10317;47.254;11.314;2023-04-29T01:20:50;3.83;;;3.53;;
20318;SDS011;10317;47.254;11.314;2023-04-29T01:23:16;3.95;;;3.60;;
20318;SDS011;10317;47.254;11.314;2023-04-29T01:25:42;3.53;;;3.25;;
20318;SDS011;10317;47.254;11.314;2023-04-29T01:30:55;3.85;;;3.50;;
20318;SDS011;10317;47.254;11.314;2023-04-29T01:41:34;4.05;;;3.08;;
20318;SDS011;10317;47.254;11.314;2023-04-29T01:44:07;5.45;;;4.05;;
20318;SDS011;10317;47.254;11.314;2023-04-29T01:46:36;4.82;;;4.43;;
20318;SDS011;10317;47.254;11.314;2023-04-29T01:49:02;3.38;;;3.17;;
20318;SDS011;10317;47.254;11.314;2023-04-29T01:51:28;4.47;;;4.13;;
20318;SDS011;10317;47.254;11.314;2023-04-29T01:53:54;4.50;;;3.85;;
20318;SDS011;10317;47.254;11.314;2023-04-29T01:56:19;4.07;;;3.78;;
20318;SDS011;10317;47.254;11.314;2023-04-29T01:58:45;3.42;;;3.17;;
20318;SDS011;10317;47.254;11.314;2023-04-29T02:01:11;2.95;;;2.85;;
20318;SDS011;10317;47.254;11.314;2023-04-29T02:03:38;5.95;;;2.90;;
20318;SDS011;10317;47.254;11.314;2023-04-29T02:06:03;3.28;;;3.08;;
20318;SDS011;10317;47.254;11.314;2023-04-29T02:08:31;4.43;;;4.13;;
20318;SDS011;10317;47.254;11.314;2023-04-29T02:10:57;5.13;;;4.72;;
20318;SDS011;10317;47.254;11.314;2023-04-29T02:13:24;4.72;;;4.35;;
20318;SDS011;10317;47.254;11.314;2023-04-29T02:15:50;4.32;;;4.03;;
20318;SDS011;10317;47.254;11.314;2023-04-29T02:18:16;4.38;;;4.07;;
20318;SDS011;10317;47.254;11.314;2023-04-29T02:20:42;4.28;;;3.97;;
20318;SDS011;10317;47.254;11.314;2023-04-29T02:23:08;5.15;;;4.65;;
20318;SDS011;10317;47.254;11.314;2023-04-29T02:25:33;4.20;;;3.90;;
20318;SDS011;10317;47.254;11.314;2023-04-29T02:27:59;4.25;;;3.95;;
20318;SDS011;10317;47.254;11.314;2023-04-29T02:30:25;5.40;;;4.30;;
20318;SDS011;10317;47.254;11.314;2023-04-29T02:32:50;4.80;;;4.00;;
20318;SDS011;10317;47.254;11.314;2023-04-29T02:35:17;4.72;;;3.55;;
20318;SDS011;10317;47.254;11.314;2023-04-29T02:37:42;3.97;;;3.67;;
20318;SDS011;10317;47.254;11.314;2023-04-29T02:40:09;4.85;;;3.90;;
20318;SDS011;10317;47.254;11.314;2023-04-29T02:42:35;3.50;;;3.30;;
20318;SDS011;10317;47.254;11.314;2023-04-29T02:45:02;4.40;;;3.55;;
20318;SDS011;10317;47.254;11.314;2023-04-29T02:47:28;3.35;;;3.15;;
20318;SDS011;10317;47.254;11.314;2023-04-29T02:49:54;3.75;;;3.50;;
20318;SDS011;10317;47.254;11.314;2023-04-29T02:52:19;3.03;;;2.83;;
20318;SDS011;10317;47.254;11.314;2023-04-29T02:54:45;3.67;;;3.47;;
20318;SDS011;10317;47.254;11.314;2023-04-29T02:57:11;3.30;;;3.10;;
20318;SDS011;10317;47.254;11.314;2023-04-29T02:59:36;3.53;;;2.85;;
20318;SDS011;10317;47.254;11.314;2023-04-29T03:02:02;3.00;;;2.90;;
20318;SDS011;10317;47.254;11.314;2023-04-29T03:04:28;5.18;;;3.70;;
20318;SDS011;10317;47.254;11.314;2023-04-29T03:06:54;5.68;;;3.40;;
20318;SDS011;10317;47.254;11.314;2023-04-29T03:09:21;5.07;;;4.68;;
20318;SDS011;10317;47.254;11.314;2023-04-29T03:11:47;4.43;;;4.03;;
20318;SDS011;10317;47.254;11.314;2023-04-29T03:14:13;5.10;;;4.18;;
20318;SDS011;10317;47.254;11.314;2023-04-29T03:16:39;3.80;;;3.38;;
20318;SDS011;10317;47.254;11.314;2023-04-29T03:19:04;3.15;;;2.95;;
20318;SDS011;10317;47.254;11.314;2023-04-29T03:21:30;3.92;;;3.65;;
20318;SDS011;10317;47.254;11.314;2023-04-29T03:23:56;3.67;;;3.17;;
20318;SDS011;10317;47.254;11.314;2023-04-29T03:26:22;3.00;;;2.88;;
20318;SDS011;10317;47.254;11.314;2023-04-29T03:28:49;3.90;;;3.58;;
20318;SDS011;10317;47.254;11.314;2023-04-29T03:31:15;4.38;;;3.70;;
20318;SDS011;10317;47.254;11.314;2023-04-29T03:33:41;3.63;;;3.42;;
20318;SDS011;10317;47.254;11.314;2023-04-29T03:36:07;3.75;;;3.45;;
20318;SDS011;10317;47.254;11.314;2023-04-29T03:38:33;3.60;;;3.30;;
20318;SDS011;10317;47.254;11.314;2023-04-29T03:40:59;3.90;;;3.33;;
20318;SDS011;10317;47.254;11.314;2023-04-29T03:43:25;3.50;;;3.13;;
20318;SDS011;10317;47.254;11.314;2023-04-29T03:45:51;3.45;;;3.15;;
20318;SDS011;10317;47.254;11.314;2023-04-29T03:48:18;3.22;;;3.05;;
20318;SDS011;10317;47.254;11.314;2023-04-29T03:50:45;3.38;;;3.17;;
20318;SDS011;10317;47.254;11.314;2023-04-29T03:53:11;3.90;;;3.20;;
20318;SDS011;10317;47.254;11.314;2023-04-29T03:55:37;3.72;;;3.33;;
20318;SDS011;10317;47.254;11.314;2023-04-29T03:58:03;3.20;;;3.00;;
20318;SDS011;10317;47.254;11.314;2023-04-29T04:00:29;4.03;;;3.72;;
20318;SDS011;10317;47.254;11.314;2023-04-29T04:02:58;3.42;;;3.13;;
20318;SDS011;10317;47.254;11.314;2023-04-29T04:05:24;2.85;;;2.75;;
20318;SDS011;10317;47.254;11.314;2023-04-29T04:07:53;3.55;;;3.35;;
20318;SDS011;10317;47.254;11.314;2023-04-29T04:10:19;3.65;;;3.35;;
20318;SDS011;10317;47.254;11.314;2023-04-29T04:12:45;4.63;;;3.55;;
20318;SDS011;10317;47.254;11.314;2023-04-29T04:15:11;4.28;;;3.80;;
20318;SDS011;10317;47.254;11.314;2023-04-29T04:17:37;2.65;;;2.45;;
20318;SDS011;10317;47.254;11.314;2023-04-29T04:20:03;2.65;;;2.45;;
20318;SDS011;10317;47.254;11.314;2023-04-29T04:22:29;5.97;;;3.10;;
20318;SDS011;10317;47.254;11.314;2023-04-29T04:24:55;4.05;;;3.22;;
20318;SDS011;10317;47.254;11.314;2023-04-29T04:27:21;2.92;;;2.72;;
20318;SDS011;10317;47.254;11.314;2023-04-29T04:29:47;3.13;;;2.75;;
20318;SDS011;10317;47.254;11.314;2023-04-29T04:32:13;2.80;;;2.60;;
20318;SDS011;10317;47.254;11.314;2023-04-29T04:34:38;3.88;;;3.55;;
20318;SDS011;10317;47.254;11.314;2023-04-29T04:37:04;2.90;;;2.70;;
20318;SDS011;10317;47.254;11.314;2023-04-29T04:39:30;2.72;;;2.55;;
20318;SDS011;10317;47.254;11.314;2023-04-29T04:41:56;2.92;;;2.72;;
20318;SDS011;10317;47.254;11.314;2023-04-29T04:44:22;2.67;;;2.47;;
20318;SDS011;10317;47.254;11.314;2023-04-29T04:46:49;2.60;;;2.50;;
20318;SDS011;10317;47.254;11.314;2023-04-29T04:49:15;2.67;;;2.55;;
20318;SDS011;10317;47.254;11.314;2023-04-29T04:51:42;2.53;;;2.35;;
20318;SDS011;10317;47.254;11.314;2023-04-29T04:54:09;2.88;;;2.60;;
20318;SDS011;10317;47.254;11.314;2023-04-29T04:56:35;3.40;;;2.70;;
20318;SDS011;10317;47.254;11.314;2023-04-29T04:59:02;2.90;;;2.78;;
20318;SDS011;10317;47.254;11.314;2023-04-29T05:01:28;2.55;;;2.45;;
20318;SDS011;10317;47.254;11.314;2023-04-29T05:03:54;4.05;;;2.90;;
20318;SDS011;10317;47.254;11.314;2023-04-29T05:06:20;3.00;;;2.80;;
20318;SDS011;10317;47.254;11.314;2023-04-29T05:08:45;3.33;;;3.03;;
20318;SDS011;10317;47.254;11.314;2023-04-29T05:11:15;4.15;;;2.90;;
20318;SDS011;10317;47.254;11.314;2023-04-29T05:13:41;2.67;;;2.47;;
20318;SDS011;10317;47.254;11.314;2023-04-29T05:16:07;2.15;;;2.05;;
20318;SDS011;10317;47.254;11.314;2023-04-29T05:18:33;2.40;;;2.30;;
20318;SDS011;10317;47.254;11.314;2023-04-29T05:20:58;2.30;;;2.20;;
20318;SDS011;10317;47.254;11.314;2023-04-29T05:23:24;2.78;;;2.50;;
20318;SDS011;10317;47.254;11.314;2023-04-29T05:25:50;3.15;;;2.85;;
20318;SDS011;10317;47.254;11.314;2023-04-29T05:28:16;3.90;;;3.70;;
20318;SDS011;10317;47.254;11.314;2023-04-29T05:30:41;3.47;;;3.00;;
20318;SDS011;10317;47.254;11.314;2023-04-29T05:33:08;3.50;;;3.20;;
20318;SDS011;10317;47.254;11.314;2023-04-29T05:35:34;2.90;;;2.70;;
20318;SDS011;10317;47.254;11.314;2023-04-29T05:37:59;3.17;;;2.88;;
20318;SDS011;10317;47.254;11.314;2023-04-29T05:40:25;6.10;;;4.28;;
20318;SDS011;10317;47.254;11.314;2023-04-29T05:42:51;5.05;;;4.65;;
20318;SDS011;10317;47.254;11.314;2023-04-29T05:45:16;6.00;;;5.45;;
20318;SDS011;10317;47.254;11.314;2023-04-29T05:47:42;6.07;;;5.47;;
20318;SDS011;10317;47.254;11.314;2023-04-29T05:50:08;4.78;;;4.38;;
20318;SDS011;10317;47.254;11.314;2023-04-29T05:52:34;5.47;;;5.07;;
20318;SDS011;10317;47.254;11.314;2023-04-29T05:54:59;4.60;;;4.20;;
20318;SDS011;10317;47.254;11.314;2023-04-29T05:57:25;4.70;;;4.30;;
20318;SDS011;10317;47.254;11.314;2023-04-29T05:59:50;4.53;;;4.22;;
20318;SDS011;10317;47.254;11.314;2023-04-29T06:02:19;5.35;;;4.82;;
20318;SDS011;10317;47.254;11.314;2023-04-29T06:04:45;4.82;;;4.45;;
20318;SDS011;10317;47.254;11.314;2023-04-29T06:07:11;4.40;;;4.00;;
20318;SDS011;10317;47.254;11.314;2023-04-29T06:09:38;5.10;;;4.68;;
20318;SDS011;10317;47.254;11.314;2023-04-29T06:12:04;4.13;;;3.72;;
20318;SDS011;10317;47.254;11.314;2023-04-29T06:14:30;5.50;;;4.63;;
20318;SDS011;10317;47.254;11.314;2023-04-29T06:16:56;4.40;;;3.85;;
20318;SDS011;10317;47.254;11.314;2023-04-29T06:19:21;3.78;;;3.50;;
20318;SDS011;10317;47.254;11.314;2023-04-29T06:21:48;2.78;;;2.67;;
20318;SDS011;10317;47.254;11.314;2023-04-29T06:24:14;3.35;;;3.15;;
20318;SDS011;10317;47.254;11.314;2023-04-29T06:26:40;2.75;;;2.65;;
20318;SDS011;10317;47.254;11.314;2023-04-29T06:29:05;2.50;;;2.40;;
20318;SDS011;10317;47.254;11.314;2023-04-29T06:31:31;3.28;;;2.72;;
20318;SDS011;10317;47.254;11.314;2023-04-29T06:33:57;2.40;;;2.30;;
20318;SDS011;10317;47.254;11.314;2023-04-29T06:36:23;2.25;;;2.13;;
20318;SDS011;10317;47.254;11.314;2023-04-29T06:38:48;1.90;;;1.80;;
20318;SDS011;10317;47.254;11.314;2023-04-29T06:41:14;2.15;;;2.05;;
20318;SDS011;10317;47.254;11.314;2023-04-29T06:43:40;1.30;;;1.20;;
20318;SDS011;10317;47.254;11.314;2023-04-29T06:46:07;1.50;;;1.50;;
20318;SDS011;10317;47.254;11.314;2023-04-29T06:48:33;0.85;;;0.85;;
20318;SDS011;10317;47.254;11.314;2023-04-29T06:50:59;1.20;;;1.20;;
20318;SDS011;10317;47.254;11.314;2023-04-29T06:53:25;1.33;;;1.30;;
20318;SDS011;10317;47.254;11.314;2023-04-29T06:55:51;1.20;;;1.20;;
20318;SDS011;10317;47.254;11.314;2023-04-29T06:58:17;1.10;;;1.10;;
20318;SDS011;10317;47.254;11.314;2023-04-29T07:00:47;1.20;;;1.17;;
20318;SDS011;10317;47.254;11.314;2023-04-29T07:03:13;1.33;;;1.33;;
20318;SDS011;10317;47.254;11.314;2023-04-29T07:05:40;2.47;;;1.15;;
20318;SDS011;10317;47.254;11.314;2023-04-29T07:08:07;1.27;;;1.20;;
20318;SDS011;10317;47.254;11.314;2023-04-29T07:10:34;1.20;;;1.10;;
20318;SDS011;10317;47.254;11.314;2023-04-29T07:13:00;1.25;;;1.25;;
20318;SDS011;10317;47.254;11.314;2023-04-29T07:15:26;1.08;;;0.80;;
20318;SDS011;10317;47.254;11.314;2023-04-29T07:17:52;0.88;;;0.88;;
20318;SDS011;10317;47.254;11.314;2023-04-29T07:20:17;3.13;;;0.80;;
20318;SDS011;10317;47.254;11.314;2023-04-29T07:22:44;0.80;;;0.80;;
20318;SDS011;10317;47.254;11.314;2023-04-29T07:25:09;0.82;;;0.82;;
20318;SDS011;10317;47.254;11.314;2023-04-29T07:27:36;1.10;;;0.90;;
20318;SDS011;10317;47.254;11.314;2023-04-29T07:30:02;0.88;;;0.85;;
20318;SDS011;10317;47.254;11.314;2023-04-29T07:32:29;0.70;;;0.70;;
20318;SDS011;10317;47.254;11.314;2023-04-29T07:34:58;0.65;;;0.65;;
20318;SDS011;10317;47.254;11.314;2023-04-29T07:37:23;0.98;;;0.90;;
20318;SDS011;10317;47.254;11.314;2023-04-29T07:39:49;1.35;;;1.10;;
20318;SDS011;10317;47.254;11.314;2023-04-29T07:42:15;1.35;;;0.75;;
20318;SDS011;10317;47.254;11.314;2023-04-29T07:44:41;0.80;;;0.80;;
20318;SDS011;10317;47.254;11.314;2023-04-29T07:47:06;0.57;;;0.57;;
20318;SDS011;10317;47.254;11.314;2023-04-29T07:49:32;0.80;;;0.80;;
20318;SDS011;10317;47.254;11.314;2023-04-29T07:51:58;1.65;;;0.80;;
20318;SDS011;10317;47.254;11.314;2023-04-29T07:54:24;0.85;;;0.85;;
20318;SDS011;10317;47.254;11.314;2023-04-29T07:56:50;3.30;;;0.90;;
20318;SDS011;10317;47.254;11.314;2023-04-29T07:59:15;1.30;;;1.30;;
20318;SDS011;10317;47.254;11.314;2023-04-29T08:01:41;1.15;;;1.08;;
20318;SDS011;10317;47.254;11.314;2023-04-29T08:04:07;1.08;;;1.08;;
20318;SDS011;10317;47.254;11.314;2023-04-29T08:06:33;1.00;;;1.00;;
20318;SDS011;10317;47.254;11.314;2023-04-29T08:08:59;0.75;;;0.75;;
20318;SDS011;10317;47.254;11.314;2023-04-29T08:11:25;0.70;;;0.70;;
20318;SDS011;10317;47.254;11.314;2023-04-29T08:13:51;0.80;;;0.80;;
20318;SDS011;10317;47.254;11.314;2023-04-29T08:16:18;1.00;;;1.00;;
20318;SDS011;10317;47.254;11.314;2023-04-29T08:18:45;0.80;;;0.80;;
20318;SDS011;10317;47.254;11.314;2023-04-29T08:21:11;0.60;;;0.60;;
20318;SDS011;10317;47.254;11.314;2023-04-29T08:23:37;0.85;;;0.77;;
20318;SDS011;10317;47.254;11.314;2023-04-29T08:26:03;0.68;;;0.50;;
20318;SDS011;10317;47.254;11.314;2023-04-29T08:28:29;1.20;;;0.60;;
20318;SDS011;10317;47.254;11.314;2023-04-29T08:30:55;1.95;;;0.70;;
20318;SDS011;10317;47.254;11.314;2023-04-29T08:33:21;0.70;;;0.70;;
20318;SDS011;10317;47.254;11.314;2023-04-29T08:35:46;0.60;;;0.60;;
20318;SDS011;10317;47.254;11.314;2023-04-29T08:38:12;0.95;;;0.75;;
20318;SDS011;10317;47.254;11.314;2023-04-29T08:40:42;0.75;;;0.60;;
20318;SDS011;10317;47.254;11.314;2023-04-29T08:43:10;0.50;;;0.50;;
20318;SDS011;10317;47.254;11.314;2023-04-29T08:45:41;0.77;;;0.52;;
20318;SDS011;10317;47.254;11.314;2023-04-29T08:48:07;1.35;;;1.00;;
20318;SDS011;10317;47.254;11.314;2023-04-29T08:50:36;0.50;;;0.50;;
20318;SDS011;10317;47.254;11.314;2023-04-29T08:53:09;0.70;;;0.70;;
20318;SDS011;10317;47.254;11.314;2023-04-29T08:55:39;1.85;;;0.60;;
20318;SDS011;10317;47.254;11.314;2023-04-29T08:58:05;0.55;;;0.55;;
20318;SDS011;10317;47.254;11.314;2023-04-29T09:00:32;0.70;;;0.70;;
20318;SDS011;10317;47.254;11.314;2023-04-29T09:02:59;0.40;;;0.40;;
20318;SDS011;10317;47.254;11.314;2023-04-29T09:05:29;1.65;;;0.60;;
20318;SDS011;10317;47.254;11.314;2023-04-29T09:07:57;1.95;;;0.60;;
20318;SDS011;10317;47.254;11.314;2023-04-29T09:10:25;0.50;;;0.50;;
20318;SDS011;10317;47.254;11.314;2023-04-29T09:12:54;0.60;;;0.60;;
20318;SDS011;10317;47.254;11.314;2023-04-29T09:15:21;0.50;;;0.50;;
20318;SDS011;10317;47.254;11.314;2023-04-29T09:17:47;0.52;;;0.52;;
20318;SDS011;10317;47.254;11.314;2023-04-29T09:22:49;0.40;;;0.40;;
20318;SDS011;10317;47.254;11.314;2023-04-29T09:25:16;0.40;;;0.40;;
20318;SDS011;10317;47.254;11.314;2023-04-29T09:27:42;0.43;;;0.43;;
20318;SDS011;10317;47.254;11.314;2023-04-29T09:30:08;0.47;;;0.47;;
20318;SDS011;10317;47.254;11.314;2023-04-29T09:32:34;0.98;;;0.52;;
20318;SDS011;10317;47.254;11.314;2023-04-29T09:37:48;1.13;;;0.57;;
20318;SDS011;10317;47.254;11.314;2023-04-29T09:40:28;1.88;;;0.95;;
20318;SDS011;10317;47.254;11.314;2023-04-29T09:42:55;0.50;;;0.50;;
20318;SDS011;10317;47.254;11.314;2023-04-29T09:45:34;0.60;;;0.60;;
20318;SDS011;10317;47.254;11.314;2023-04-29T09:48:01;0.68;;;0.68;;
20318;SDS011;10317;47.254;11.314;2023-04-29T09:50:28;0.60;;;0.60;;
20318;SDS011;10317;47.254;11.314;2023-04-29T09:52:55;0.68;;;0.68;;
20318;SDS011;10317;47.254;11.314;2023-04-29T09:55:20;1.02;;;0.52;;
20318;SDS011;10317;47.254;11.314;2023-04-29T09:57:46;0.47;;;0.47;;
20318;SDS011;10317;47.254;11.314;2023-04-29T10:00:12;0.77;;;0.77;;
20318;SDS011;10317;47.254;11.314;2023-04-29T10:02:40;0.60;;;0.60;;
20318;SDS011;10317;47.254;11.314;2023-04-29T10:05:07;0.32;;;0.32;;
20318;SDS011;10317;47.254;11.314;2023-04-29T10:07:34;0.95;;;0.70;;
20318;SDS011;10317;47.254;11.314;2023-04-29T10:10:04;0.82;;;0.70;;
20318;SDS011;10317;47.254;11.314;2023-04-29T10:12:33;0.50;;;0.50;;
20318;SDS011;10317;47.254;11.314;2023-04-29T10:15:11;0.70;;;0.70;;
20318;SDS011;10317;47.254;11.314;2023-04-29T10:20:37;0.60;;;0.60;;
20318;SDS011;10317;47.254;11.314;2023-04-29T10:23:05;0.70;;;0.70;;
20318;SDS011;10317;47.254;11.314;2023-04-29T10:25:31;1.85;;;0.75;;
20318;SDS011;10317;47.254;11.314;2023-04-29T10:28:00;0.50;;;0.50;;
20318;SDS011;10317;47.254;11.314;2023-04-29T10:30:28;0.70;;;0.70;;
20318;SDS011;10317;47.254;11.314;2023-04-29T10:32:55;0.60;;;0.60;;
20318;SDS011;10317;47.254;11.314;2023-04-29T10:35:26;0.65;;;0.50;;
20318;SDS011;10317;47.254;11.314;2023-04-29T10:37:51;0.60;;;0.60;;
20318;SDS011;10317;47.254;11.314;2023-04-29T10:40:21;0.60;;;0.60;;
20318;SDS011;10317;47.254;11.314;2023-04-29T10:42:55;1.55;;;0.68;;
20318;SDS011;10317;47.254;11.314;2023-04-29T10:45:24;0.85;;;0.70;;
20318;SDS011;10317;47.254;11.314;2023-04-29T10:50:39;0.70;;;0.70;;
20318;SDS011;10317;47.254;11.314;2023-04-29T10:53:14;0.55;;;0.55;;
20318;SDS011;10317;47.254;11.314;2023-04-29T10:55:41;0.70;;;0.70;;
20318;SDS011;10317;47.254;11.314;2023-04-29T11:01:01;0.80;;;0.80;;
20318;SDS011;10317;47.254;11.314;2023-04-29T11:03:47;0.70;;;0.70;;
20318;SDS011;10317;47.254;11.314;2023-04-29T11:08:59;1.70;;;0.70;;
20318;SDS011;10317;47.254;11.314;2023-04-29T11:11:38;0.70;;;0.70;;
20318;SDS011;10317;47.254;11.314;2023-04-29T11:16:55;0.60;;;0.60;;
20318;SDS011;10317;47.254;11.314;2023-04-29T11:19:23;2.60;;;0.57;;
20318;SDS011;10317;47.254;11.314;2023-04-29T11:25:08;0.95;;;0.60;;
20318;SDS011;10317;47.254;11.314;2023-04-29T11:30:00;0.50;;;0.50;;
20318;SDS011;10317;47.254;11.314;2023-04-29T11:32:33;0.50;;;0.50;;
20318;SDS011;10317;47.254;11.314;2023-04-29T11:35:33;0.70;;;0.68;;
20318;SDS011;10317;47.254;11.314;2023-04-29T11:37:51;1.90;;;0.73;;
20318;SDS011;10317;47.254;11.314;2023-04-29T11:40:17;0.63;;;0.63;;
20318;SDS011;10317;47.254;11.314;2023-04-29T11:42:44;0.90;;;0.90;;
20318;SDS011;10317;47.254;11.314;2023-04-29T11:45:13;0.85;;;0.85;;
20318;SDS011;10317;47.254;11.314;2023-04-29T11:47:42;0.80;;;0.80;;
20318;SDS011;10317;47.254;11.314;2023-04-29T11:50:09;5.30;;;0.60;;
20318;SDS011;10317;47.254;11.314;2023-04-29T11:52:36;0.73;;;0.68;;
20318;SDS011;10317;47.254;11.314;2023-04-29T11:55:04;0.60;;;0.60;;
20318;SDS011;10317;47.254;11.314;2023-04-29T11:57:32;0.80;;;0.80;;
20318;SDS011;10317;47.254;11.314;2023-04-29T11:59:58;0.77;;;0.75;;
20318;SDS011;10317;47.254;11.314;2023-04-29T12:02:33;1.15;;;0.70;;
20318;SDS011;10317;47.254;11.314;2023-04-29T12:04:59;0.60;;;0.60;;
20318;SDS011;10317;47.254;11.314;2023-04-29T12:07:31;0.70;;;0.70;;
20318;SDS011;10317;47.254;11.314;2023-04-29T12:09:57;0.90;;;0.63;;
20318;SDS011;10317;47.254;11.314;2023-04-29T12:12:24;0.60;;;0.60;;
20318;SDS011;10317;47.254;11.314;2023-04-29T12:14:51;2.65;;;0.65;;
20318;SDS011;10317;47.254;11.314;2023-04-29T12:17:18;0.60;;;0.57;;
20318;SDS011;10317;47.254;11.314;2023-04-29T12:19:44;0.80;;;0.80;;
20318;SDS011;10317;47.254;11.314;2023-04-29T12:22:10;0.50;;;0.50;;
20318;SDS011;10317;47.254;11.314;2023-04-29T12:24:37;0.43;;;0.43;;
20318;SDS011;10317;47.254;11.314;2023-04-29T12:27:06;0.80;;;0.50;;
20318;SDS011;10317;47.254;11.314;2023-04-29T12:29:32;0.60;;;0.57;;
20318;SDS011;10317;47.254;11.314;2023-04-29T12:31:59;0.40;;;0.40;;
20318;SDS011;10317;47.254;11.314;2023-04-29T12:34:29;0.68;;;0.68;;
20318;SDS011;10317;47.254;11.314;2023-04-29T12:36:56;0.60;;;0.60;;
20318;SDS011;10317;47.254;11.314;2023-04-29T12:39:25;0.60;;;0.60;;
20318;SDS011;10317;47.254;11.314;2023-04-29T12:41:56;0.75;;;0.75;;
20318;SDS011;10317;47.254;11.314;2023-04-29T12:44:22;1.33;;;0.50;;
20318;SDS011;10317;47.254;11.314;2023-04-29T12:46:49;0.45;;;0.40;;
20318;SDS011;10317;47.254;11.314;2023-04-29T12:49:16;1.08;;;0.50;;
20318;SDS011;10317;47.254;11.314;2023-04-29T12:51:43;0.60;;;0.60;;
20318;SDS011;10317;47.254;11.314;2023-04-29T12:54:09;0.60;;;0.60;;
20318;SDS011;10317;47.254;11.314;2023-04-29T12:56:36;0.55;;;0.50;;
20318;SDS011;10317;47.254;11.314;2023-04-29T12:59:06;1.00;;;0.85;;
20318;SDS011;10317;47.254;11.314;2023-04-29T13:01:32;2.60;;;0.55;;
20318;SDS011;10317;47.254;11.314;2023-04-29T13:03:58;1.08;;;0.52;;
20318;SDS011;10317;47.254;11.314;2023-04-29T13:06:24;0.70;;;0.70;;
20318;SDS011;10317;47.254;11.314;2023-04-29T13:08:49;0.40;;;0.40;;
20318;SDS011;10317;47.254;11.314;2023-04-29T13:11:16;1.23;;;0.65;;
20318;SDS011;10317;47.254;11.314;2023-04-29T13:13:41;0.45;;;0.45;;
20318;SDS011;10317;47.254;11.314;2023-04-29T13:16:07;0.47;;;0.47;;
20318;SDS011;10317;47.254;11.314;2023-04-29T13:18:33;0.60;;;0.60;;
20318;SDS011;10317;47.254;11.314;2023-04-29T13:20:59;0.75;;;0.75;;
20318;SDS011;10317;47.254;11.314;2023-04-29T13:23:25;0.60;;;0.60;;
20318;SDS011;10317;47.254;11.314;2023-04-29T13:25:51;0.82;;;0.60;;
20318;SDS011;10317;47.254;11.314;2023-04-29T13:28:17;0.68;;;0.68;;
20318;SDS011;10317;47.254;11.314;2023-04-29T13:30:43;0.50;;;0.50;;
20318;SDS011;10317;47.254;11.314;2023-04-29T13:33:08;0.40;;;0.40;;
20318;SDS011;10317;47.254;11.314;2023-04-29T13:35:34;0.50;;;0.50;;
20318;SDS011;10317;47.254;11.314;2023-04-29T13:38:02;2.97;;;0.70;;
20318;SDS011;10317;47.254;11.314;2023-04-29T13:40:28;3.03;;;0.52;;
20318;SDS011;10317;47.254;11.314;2023-04-29T13:42:53;1.48;;;0.50;;
20318;SDS011;10317;47.254;11.314;2023-04-29T13:45:19;0.50;;;0.50;;
20318;SDS011;10317;47.254;11.314;2023-04-29T13:47:45;0.40;;;0.40;;
20318;SDS011;10317;47.254;11.314;2023-04-29T13:50:11;0.77;;;0.60;;
20318;SDS011;10317;47.254;11.314;2023-04-29T13:52:37;0.65;;;0.65;;
20318;SDS011;10317;47.254;11.314;2023-04-29T13:55:03;0.40;;;0.40;;
20318;SDS011;10317;47.254;11.314;2023-04-29T13:57:29;0.45;;;0.45;;
20318;SDS011;10317;47.254;11.314;2023-04-29T13:59:54;0.47;;;0.47;;
20318;SDS011;10317;47.254;11.314;2023-04-29T14:02:20;0.60;;;0.60;;
20318;SDS011;10317;47.254;11.314;2023-04-29T14:04:46;0.75;;;0.40;;
20318;SDS011;10317;47.254;11.314;2023-04-29T14:07:15;1.02;;;0.60;;
20318;SDS011;10317;47.254;11.314;2023-04-29T14:09:41;1.35;;;0.50;;
20318;SDS011;10317;47.254;11.314;2023-04-29T14:12:06;0.68;;;0.68;;
20318;SDS011;10317;47.254;11.314;2023-04-29T14:14:32;1.35;;;0.50;;
20318;SDS011;10317;47.254;11.314;2023-04-29T14:16:58;0.40;;;0.40;;
20318;SDS011;10317;47.254;11.314;2023-04-29T14:19:25;0.30;;;0.30;;
20318;SDS011;10317;47.254;11.314;2023-04-29T14:21:51;0.50;;;0.50;;
20318;SDS011;10317;47.254;11.314;2023-04-29T14:24:16;0.57;;;0.57;;
20318;SDS011;10317;47.254;11.314;2023-04-29T14:26:42;0.95;;;0.43;;
20318;SDS011;10317;47.254;11.314;2023-04-29T14:29:08;0.40;;;0.40;;
20318;SDS011;10317;47.254;11.314;2023-04-29T14:31:34;0.45;;;0.45;;
20318;SDS011;10317;47.254;11.314;2023-04-29T14:34:02;0.50;;;0.50;;
20318;SDS011;10317;47.254;11.314;2023-04-29T14:36:28;0.65;;;0.60;;
20318;SDS011;10317;47.254;11.314;2023-04-29T14:38:56;0.40;;;0.40;;
20318;SDS011;10317;47.254;11.314;2023-04-29T14:41:22;0.40;;;0.40;;
20318;SDS011;10317;47.254;11.314;2023-04-29T14:43:48;0.30;;;0.30;;
20318;SDS011;10317;47.254;11.314;2023-04-29T14:46:13;0.50;;;0.50;;
20318;SDS011;10317;47.254;11.314;2023-04-29T14:48:39;2.35;;;0.73;;
20318;SDS011;10317;47.254;11.314;2023-04-29T14:51:05;0.55;;;0.55;;
20318;SDS011;10317;47.254;11.314;2023-04-29T14:53:31;0.50;;;0.50;;
20318;SDS011;10317;47.254;11.314;2023-04-29T14:55:57;0.60;;;0.60;;
20318;SDS011;10317;47.254;11.314;2023-04-29T14:58:23;0.50;;;0.50;;
20318;SDS011;10317;47.254;11.314;2023-04-29T15:00:49;0.65;;;0.65;;
20318;SDS011;10317;47.254;11.314;2023-04-29T15:03:15;1.27;;;0.70;;
20318;SDS011;10317;47.254;11.314;2023-04-29T15:05:41;0.77;;;0.77;;
20318;SDS011;10317;47.254;11.314;2023-04-29T15:08:08;0.60;;;0.60;;
20318;SDS011;10317;47.254;11.314;2023-04-29T15:10:34;0.70;;;0.70;;
20318;SDS011;10317;47.254;11.314;2023-04-29T15:13:00;0.70;;;0.70;;
20318;SDS011;10317;47.254;11.314;2023-04-29T15:15:26;1.15;;;0.73;;